Latest Weather Observations for Edinburgh

IDS60901

Issued at 10:21 pm CST Tuesday 25 July 2017 (issued every 10 minutes, with the page automatically refreshed every 10 minutes)

About weather observations | Map of Adelaide area stations | Latest observations for Adelaide area | Other Formats
Station Details ID: 023083 Name: EDINBURGH RAAF Lat: -34.71 Lon: 138.62 Height: 16.54 m
Data from the previous 72 hours. | See also: Recent months at Edinburgh
Date/Time
CST
Temp
°C
App
Temp
°C
Dew
Point
°C
Rel
Hum
%
Delta-T
°C
Wind Press
QNH
hPa
Press
MSL
hPa
Rain since
9am
mm
Dir  Spd
km/h
Gust
km/h
Spd
kts
Gust
kts
25/10:00pm 11.1 8.4 9.0 87 1.0 NNW 13 19 7 10 1021.2 1021.2 0.0
25/09:30pm 11.1 8.8 9.0 87 1.0 NNW 11 15 6 8 1020.9 1020.9 0.0
25/09:00pm 10.9 8.2 8.8 87 1.0 NNW 13 19 7 10 1020.8 1020.8 0.0
25/08:30pm 11.3 8.6 9.0 86 1.1 NNW 13 17 7 9 1020.6 1020.6 0.0
25/08:00pm 11.5 9.6 8.9 84 1.3 NW 9 15 5 8 1020.2 1020.2 0.0
25/07:30pm 11.4 7.9 8.6 83 1.4 NNW 17 20 9 11 1019.8 1019.8 0.0
25/07:00pm 10.9 7.7 8.3 84 1.3 N 15 20 8 11 1019.6 1019.6 0.0
25/06:30pm 11.1 8.2 8.3 83 1.4 N 13 17 7 9 1019.2 1019.2 0.0
25/06:00pm 11.0 8.5 8.1 82 1.4 N 11 13 6 7 1018.8 1018.8 0.0
25/05:30pm 12.5 9.7 8.6 77 1.9 N 13 15 7 8 1018.5 1018.5 0.0
25/05:00pm 13.9 11.2 10.3 79 1.9 N 15 17 8 9 1018.4 1018.4 0.0
25/04:30pm 14.4 11.6 11.4 82 1.6 NNW 17 22 9 12 1018.4 1018.4 0.0
25/04:00pm 14.8 12.0 11.4 80 1.8 NW 17 20 9 11 1018.3 1018.3 0.0
25/03:30pm 15.0 10.9 11.6 80 1.8 NW 24 32 13 17 1018.8 1018.8 0.0
25/03:00pm 15.3 11.2 11.5 78 2.0 NW 24 32 13 17 1018.7 1018.7 0.0
25/02:30pm 15.4 11.0 11.8 79 1.9 NW 26 35 14 19 1018.4 1018.4 0.0
25/02:00pm 15.6 11.2 11.6 77 2.2 NW 26 33 14 18 1018.3 1018.3 0.0
25/01:30pm 16.0 11.6 11.6 75 2.4 WNW 26 33 14 18 1018.2 1018.2 0.0
25/01:00pm 16.1 11.4 11.9 76 2.3 WNW 28 39 15 21 1018.4 1018.4 0.0
25/12:30pm 15.8 11.7 11.6 76 2.3 WNW 24 32 13 17 1018.5 1018.5 0.0
25/12:00pm 15.8 11.7 11.6 76 2.3 WNW 24 33 13 18 1018.7 1018.7 0.0
25/11:30am 16.9 13.8 12.2 74 2.6 WNW 20 28 11 15 1018.9 1018.9 0.0
25/11:00am 15.9 12.4 10.9 72 2.7 NNW 20 26 11 14 1019.1 1019.1 0.0
25/10:50am 15.5 12.1 10.7 73 2.5 NW 19 26 10 14 1019.2 1019.2 0.0
25/10:30am 15.5 12.8 10.3 71 2.7 NW 15 20 8 11 1019.1 1019.1 0.0
25/10:02am 14.9 11.0 8.8 67 3.1 NNW 19 24 10 13 1019.1 1019.1 0.0
25/10:00am 14.7 11.2 8.6 67 3.1 NNW 17 24 9 13 1019.1 1019.1 0.0
25/09:30am 13.3 10.6 7.3 67 2.9 N 11 15 6 8 1019.1 1019.1 0.0
25/09:00am 11.1 8.1 5.8 70 2.4 NNE 11 13 6 7 1019.1 1019.1 0.0
25/08:30am 10.4 7.2 5.2 70 2.4 NE 11 13 6 7 1018.9 1018.9 0.0
25/08:00am 9.6 6.3 4.8 72 2.1 NE 11 13 6 7 1018.7 1018.7 0.0
25/07:30am 8.4 5.0 3.8 73 2.0 NE 11 13 6 7 1018.4 1018.4 0.0
25/07:00am 9.2 5.8 3.8 69 2.4 NE 11 17 6 9 1018.0 1018.0 0.0
25/06:30am 8.6 5.6 4.0 73 2.0 NE 9 13 5 7 1017.7 1017.7 0.0
25/06:00am 8.8 5.8 4.0 72 2.1 ENE 9 13 5 7 1017.4 1017.4 0.0
25/05:30am 8.2 4.5 4.2 76 1.7 NE 13 15 7 8 1017.2 1017.2 0.0
25/05:00am 8.5 4.4 4.5 76 1.8 ENE 15 17 8 9 1016.9 1016.9 0.0
25/04:30am 8.2 4.5 4.6 78 1.6 NNE 13 17 7 9 1016.8 1016.8 0.0
25/04:00am 8.6 4.6 4.8 77 1.7 NNE 15 19 8 10 1016.9 1016.9 0.0
25/03:30am 9.2 5.2 5.0 75 1.9 NE 15 19 8 10 1017.1 1017.1 0.0
25/03:00am 8.9 7.1 5.5 79 1.5 WSW 4 9 2 5 1017.5 1017.5 0.0
25/02:30am 8.1 4.8 4.3 77 1.7 WSW 11 13 6 7 1017.4 1017.4 0.0
25/02:00am 10.5 7.0 5.5 71 2.3 NE 13 15 7 8 1017.1 1017.1 0.0
25/01:30am 10.9 6.6 5.4 69 2.5 NE 17 20 9 11 1017.2 1017.2 0.0
25/01:00am 11.3 7.1 5.6 68 2.6 NE 17 19 9 10 1017.3 1017.3 0.0
25/12:30am 11.4 6.9 5.9 69 2.6 NE 19 20 10 11 1017.4 1017.4 0.0
25/12:00am 11.9 7.8 6.2 68 2.7 NE 17 20 9 11 1017.7 1017.7 0.0
 
Date/Time
CST
Temp
°C
App
Temp
°C
Dew
Point
°C
Rel
Hum
%
Delta-T
°C
Wind Press
QNH
hPa
Press
MSL
hPa
Rain since
9am
mm
Dir  Spd
km/h
Gust
km/h
Spd
kts
Gust
kts
24/11:30pm 12.0 7.5 6.3 68 2.7 NE 19 20 10 11 1018.0 1018.0 0.0
24/11:00pm 12.8 8.3 6.8 67 2.9 NE 20 24 11 13 1018.2 1018.2 0.0
24/10:30pm 13.4 9.0 7.2 66 3.0 NE 20 24 11 13 1018.2 1018.2 0.0
24/10:00pm 12.6 9.6 7.7 72 2.4 NE 13 17 7 9 1018.4 1018.4 0.0
24/09:30pm 12.7 9.3 7.6 71 2.5 NE 15 17 8 9 1018.5 1018.5 0.0
24/09:00pm 11.8 8.4 7.5 75 2.1 NE 15 15 8 8 1018.7 1018.7 0.0
24/08:30pm 11.9 8.5 7.6 75 2.1 NE 15 17 8 9 1018.7 1018.7 0.0
24/08:00pm 12.9 10.0 8.2 73 2.3 NE 13 15 7 8 1018.8 1018.8 0.0
24/07:30pm 13.6 10.8 8.4 71 2.6 ENE 13 17 7 9 1018.8 1018.8 0.0
24/07:00pm 13.7 11.2 8.3 70 2.7 NE 11 13 6 7 1018.9 1018.9 0.0
24/06:30pm 13.7 12.2 8.5 71 2.6 NE 6 7 3 4 1018.7 1018.7 0.0
24/06:00pm 13.6 13.1 8.0 69 2.8 CALM 0 0 0 0 1018.5 1018.5 0.0
24/05:30pm 16.1 15.7 8.3 60 3.9 CALM 0 4 0 2 1018.2 1018.2 0.0
24/05:00pm 16.8 15.3 9.2 61 3.9 SW 7 9 4 5 1018.3 1018.3 0.0
24/04:30pm 18.1 16.0 8.4 53 5.0 W 9 11 5 6 1018.3 1018.3 0.0
24/04:00pm 19.2 16.1 7.3 46 6.0 WNW 13 20 7 11 1018.3 1018.3 0.0
24/03:30pm 19.4 15.1 6.8 44 6.3 WNW 19 22 10 12 1018.5 1018.5 0.0
24/03:00pm 19.3 13.8 6.1 42 6.5 NW 24 32 13 17 1018.7 1018.7 0.0
24/02:30pm 19.2 13.7 6.0 42 6.5 NW 24 30 13 16 1018.9 1018.9 0.0
24/02:00pm 19.2 15.1 6.0 42 6.5 NW 17 28 9 15 1019.1 1019.1 0.0
24/01:30pm 18.3 13.8 8.6 53 5.0 NW 22 28 12 15 1019.7 1019.7 0.0
24/01:00pm 17.9 13.8 8.7 55 4.8 NNW 20 30 11 16 1020.3 1020.3 0.0
24/12:30pm 17.5 14.0 8.9 57 4.4 NNW 17 30 9 16 1020.7 1020.7 0.0
24/12:00pm 16.7 13.9 9.9 64 3.6 N 15 22 8 12 1020.9 1020.9 0.0
24/11:30am 15.6 12.7 9.5 67 3.1 NNE 15 20 8 11 1021.4 1021.4 0.0
24/11:00am 15.1 11.8 9.5 69 2.9 NNE 17 22 9 12 1022.0 1022.0 0.0
24/10:30am 13.7 10.1 8.5 71 2.6 NNE 17 20 9 11 1022.2 1022.2 0.0
24/10:00am 13.0 9.9 8.7 75 2.2 NNE 15 20 8 11 1022.3 1022.3 0.0
24/09:30am 11.8 8.5 7.9 77 1.9 NNE 15 19 8 10 1022.2 1022.2 0.0
24/09:00am 10.6 7.1 7.3 80 1.6 NE 15 19 8 10 1022.2 1022.2 0.0
24/08:30am 9.3 5.7 6.9 85 1.1 NNE 15 19 8 10 1022.3 1022.3 0.0
24/08:00am 7.6 4.2 6.1 90 0.7 NE 13 17 7 9 1022.3 1022.3 0.0
24/07:30am 7.4 4.0 5.7 89 0.8 NE 13 15 7 8 1022.2 1022.2 0.0
24/07:00am 7.2 4.2 5.8 91 0.6 NE 11 15 6 8 1022.0 1022.0 0.0
24/06:30am 6.4 2.8 5.0 91 0.6 NE 13 15 7 8 1021.8 1021.8 0.0
24/06:00am 6.8 3.6 5.1 89 0.7 NE 11 11 6 6 1021.4 1021.4 0.0
24/05:30am 7.2 4.1 5.5 89 0.8 NE 11 11 6 6 1021.0 1021.0 0.0
24/05:00am 7.4 4.0 5.9 90 0.7 ENE 13 15 7 8 1020.9 1020.9 0.0
24/04:30am 7.3 4.3 6.1 92 0.5 NE 11 17 6 9 1020.9 1020.9 0.0
24/04:00am 7.5 4.2 6.3 92 0.5 NE 13 13 7 7 1021.2 1021.2 0.0
24/03:30am 6.9 3.5 5.7 92 0.5 NE 13 15 7 8 1021.0 1021.0 0.0
24/03:00am 7.7 4.4 6.5 92 0.5 ENE 13 17 7 9 1021.0 1021.0 0.0
24/02:30am 7.5 4.6 6.4 93 0.5 NE 11 13 6 7 1021.1 1021.1 0.0
24/02:00am 6.7 3.3 5.7 93 0.4 NE 13 17 7 9 1021.3 1021.3 0.0
24/01:30am 6.4 2.9 5.4 93 0.4 NE 13 13 7 7 1021.3 1021.3 0.0
24/01:00am 7.2 4.3 6.3 94 0.4 ENE 11 13 6 7 1021.2 1021.2 0.0
24/12:30am 7.1 4.5 6.0 93 0.5 NE 9 11 5 6 1021.2 1021.2 0.0
24/12:00am 7.3 4.3 6.2 93 0.5 NE 11 11 6 6 1021.2 1021.2 0.0
 
Date/Time
CST
Temp
°C
App
Temp
°C
Dew
Point
°C
Rel
Hum
%
Delta-T
°C
Wind Press
QNH
hPa
Press
MSL
hPa
Rain since
9am
mm
Dir  Spd
km/h
Gust
km/h
Spd
kts
Gust
kts
23/11:30pm 6.8 4.1 5.4 91 0.6 NE 9 13 5 7 1021.2 1021.2 0.0
23/11:00pm 7.3 4.3 6.1 92 0.5 NE 11 13 6 7 1021.3 1021.3 0.0
23/10:30pm 7.7 4.8 6.5 92 0.5 NE 11 13 6 7 1021.2 1021.2 0.0
23/10:00pm 8.5 6.2 7.3 92 0.6 NE 9 11 5 6 1021.0 1021.0 0.0
23/09:30pm 8.0 4.7 6.5 90 0.7 NE 13 15 7 8 1020.8 1020.8 0.0
23/09:00pm 9.3 7.2 8.1 92 0.6 ENE 9 13 5 7 1020.6 1020.6 0.0
23/08:30pm 8.3 5.2 7.1 92 0.6 NNE 13 13 7 7 1020.4 1020.4 0.0
23/08:00pm 9.1 6.9 8.0 93 0.5 NE 9 11 5 6 1020.0 1020.0 0.0
23/07:30pm 9.5 9.0 7.8 89 0.8 CALM 0 0 0 0 1019.6 1019.6 0.0
23/07:00pm 10.5 9.9 9.1 91 0.7 WSW 2 7 1 4 1019.4 1019.4 0.0
23/06:30pm 10.7 7.9 8.6 87 1.0 W 13 13 7 7 1019.1 1019.1 0.0
23/06:00pm 11.9 9.2 9.1 83 1.4 WSW 13 15 7 8 1018.9 1018.9 0.0
23/05:30pm 12.9 9.1 9.2 78 1.9 W 19 24 10 13 1018.6 1018.6 0.0
23/05:00pm 13.9 8.7 8.9 72 2.5 W 26 32 14 17 1018.4 1018.4 0.0
23/04:30pm 14.5 9.5 9.7 73 2.5 W 26 32 14 17 1018.3 1018.3 0.0
23/04:00pm 15.4 9.2 9.5 68 3.1 W 32 39 17 21 1018.0 1018.0 0.0
23/03:30pm 15.9 10.1 9.6 66 3.3 W 30 41 16 22 1017.8 1017.8 0.0
23/03:00pm 16.2 9.9 9.6 65 3.4 W 33 43 18 23 1017.7 1017.7 0.0
23/02:30pm 16.4 10.3 9.6 64 3.5 WNW 32 41 17 22 1017.7 1017.7 0.0
23/02:00pm 16.2 9.5 9.6 65 3.4 W 35 46 19 25 1017.7 1017.7 0.0
23/01:30pm 16.4 9.2 9.3 63 3.7 W 37 46 20 25 1017.7 1017.7 0.0
23/01:00pm 16.3 9.6 9.5 64 3.5 W 35 44 19 24 1017.8 1017.8 0.0
23/12:30pm 16.4 10.1 10.9 70 2.9 WNW 35 46 19 25 1018.1 1018.1 0.0
23/12:00pm 16.5 10.7 10.8 69 3.0 WNW 32 41 17 22 1018.4 1018.4 0.0
23/11:30am 15.5 10.1 10.9 74 2.4 WNW 30 39 16 21 1018.8 1018.8 0.0
23/11:00am 15.6 11.5 11.6 77 2.2 NW 24 32 13 17 1019.0 1019.0 0.0
23/10:30am 14.2 10.1 11.4 83 1.5 NW 24 32 13 17 1019.1 1019.1 0.0
23/10:27am 14.0 9.4 11.2 83 1.5 NW 26 32 14 17 1019.1 1019.1 0.0
23/10:00am 13.2 8.9 10.9 86 1.2 NW 24 32 13 17 1019.0 1019.0 0.0
23/09:30am 12.5 9.2 10.9 90 0.8 NW 19 24 10 13 1018.7 1018.7 0.0
23/09:12am 12.1 8.7 10.5 90 0.8 NNW 19 22 10 12 1018.4 1018.4 0.0
23/09:00am 11.8 8.3 10.2 90 0.8 NNW 19 24 10 13 1018.3 1018.3 0.0
23/08:58am 11.8 8.7 10.4 91 0.7 NNW 17 24 9 13 1018.3 1018.3 0.0
23/08:30am 10.3 6.6 9.4 94 0.4 NNW 19 26 10 14 1018.1 1018.1 0.0
23/08:00am 9.1 5.8 8.2 94 0.4 NNW 15 19 8 10 1017.9 1017.9 0.0
23/07:30am 8.6 6.7 7.7 94 0.4 N 7 13 4 7 1017.7 1017.7 0.0
23/07:04am 7.7 4.9 6.8 94 0.4 NE 11 13 6 7 1017.5 1017.5 0.0
23/07:00am 7.6 4.7 6.7 94 0.4 NE 11 13 6 7 1017.4 1017.4 0.0
23/06:30am 8.1 5.7 7.0 93 0.5 ENE 9 13 5 7 1017.2 1017.2 0.0
23/06:00am 7.5 4.6 6.4 93 0.5 NE 11 11 6 6 1016.9 1016.9 0.0
23/05:30am 8.6 6.3 7.5 93 0.5 N 9 9 5 5 1016.6 1016.6 0.0
23/05:04am 8.6 5.9 7.4 92 0.6 NE 11 13 6 7 1016.6 1016.6 0.0
23/05:00am 8.6 5.9 7.2 91 0.7 NE 11 13 6 7 1016.6 1016.6 0.0
23/04:50am 9.1 6.9 7.9 92 0.6 ENE 9 13 5 7 1016.5 1016.5 0.0
23/04:30am 8.5 6.5 7.3 92 0.6 ENE 7 9 4 5 1016.3 1016.3 0.0
23/04:00am 9.2 7.0 7.8 91 0.7 NNW 9 15 5 8 1016.2 1016.2 0.0
23/03:30am 9.0 7.2 7.8 92 0.6 NNW 7 11 4 6 1016.4 1016.4 0.0
23/03:00am 8.7 6.3 7.2 90 0.7 NNW 9 15 5 8 1016.1 1016.1 0.0
23/02:30am 9.0 6.7 7.3 89 0.8 NNW 9 13 5 7 1016.1 1016.1 0.0
23/02:00am 9.2 6.0 7.0 86 1.0 NW 13 17 7 9 1016.3 1016.3 0.0
23/01:30am 9.4 5.4 6.5 82 1.3 NW 17 20 9 11 1016.3 1016.3 0.0
23/01:00am 8.5 5.0 5.6 82 1.3 NW 13 17 7 9 1016.1 1016.1 0.0
23/12:30am 8.2 4.9 4.6 78 1.6 NNW 11 13 6 7 1016.1 1016.1 0.0
23/12:00am 9.0 6.5 4.6 74 1.9 NNW 7 9 4 5 1016.3 1016.3 0.0
 
Date/Time
CST
Temp
°C
App
Temp
°C
Dew
Point
°C
Rel
Hum
%
Delta-T
°C
Wind Press
QNH
hPa
Press
MSL
hPa
Rain since
9am
mm
Dir  Spd
km/h
Gust
km/h
Spd
kts
Gust
kts
22/11:30pm 9.3 7.0 4.9 74 2.0 N 6 7 3 4 1016.1 1016.1 0.0
22/11:00pm 9.5 5.9 4.9 73 2.1 NNW 13 15 7 8 1016.2 1016.2 0.0
22/10:30pm 10.5 8.3 5.1 69 2.4 N 6 9 3 5 1016.2 1016.2 0.0

Latest Capital City Observations: Canberra | Sydney | Melbourne | Brisbane | Adelaide | Perth | Hobart | Darwin

Other Formats:

Comma delimited format used in spreadsheet applications
http://www.bom.gov.au/fwo/IDS60901/IDS60901.95676.axf

JavaScript Object Notation format (JSON) in row-major order
http://www.bom.gov.au/fwo/IDS60901/IDS60901.95676.json